Aviation Digital Data Service (ADDS)

Output produced by TAFs form (2355 UTC 24 February 2018)
found at http://aviationweather.gov/adds/tafs/
 
KGJT 242320Z 2500/2524 29010KT P6SM SCT070 BKN150 
     FM250200 08004KT P6SM SCT060 OVC070 
     FM251100 02004KT P6SM SCT040 OVC070 
     FM251500 34004KT P6SM FEW040 SCT070 
     FM252000 28005KT P6SM FEW060 FEW250